BAW8957 EGCC-EIDW
Flight info
| Callsign | BAW8957 |
|---|---|
| Flight time | 0h 50m |
| Altitude | 24000 |
| Route | ASMIM L975 WAL L10 PENIL L28 LELDO M145 BAGSO BAGSO4L |
| Aircraft | A20N/M-SDE2E3FGHIRWXY/LB1 |
Departure
| Time | 2026-04-30 18:52 |
|---|---|
| Airport | Manchester Airport (EGCC) |
Arrival
| Time | 2026-04-30 19:42 |
|---|---|
| Airport | Dublin Airport (EIDW) |
| Time | Latitude | Longitude | Altitude | Speed | Heading |
|---|---|---|---|---|---|
| 2026-04-30 17:55 | 53.36586 | -2.27953 | 244 ft | 0 kts | 43° |
| 2026-04-30 18:29 | 53.36586 | -2.27952 | 244 ft | 0 kts | 43° |
| 2026-04-30 18:30 | 53.36586 | -2.27953 | 244 ft | 0 kts | 43° |
| 2026-04-30 18:34 | 53.36584 | -2.27956 | 244 ft | 3 kts | 43° |
| 2026-04-30 18:35 | 53.36569 | -2.27980 | 244 ft | 3 kts | 43° |
| 2026-04-30 18:35 | 53.36555 | -2.28003 | 244 ft | 3 kts | 43° |
| 2026-04-30 18:35 | 53.36541 | -2.28025 | 244 ft | 3 kts | 47° |
| 2026-04-30 18:36 | 53.36538 | -2.28079 | 243 ft | 3 kts | 131° |
| 2026-04-30 18:36 | 53.36547 | -2.28096 | 243 ft | 0 kts | 138° |
| 2026-04-30 18:45 | 53.35995 | -2.27831 | 241 ft | 11 kts | 179° |
| 2026-04-30 18:45 | 53.35932 | -2.27839 | 240 ft | 10 kts | 187° |
| 2026-04-30 18:45 | 53.35904 | -2.27843 | 240 ft | 0 kts | 185° |
| 2026-04-30 18:46 | 53.35893 | -2.27843 | 240 ft | 10 kts | 177° |
| 2026-04-30 18:46 | 53.35819 | -2.27851 | 240 ft | 12 kts | 212° |
| 2026-04-30 18:46 | 53.35729 | -2.27877 | 239 ft | 15 kts | 186° |
| 2026-04-30 18:47 | 53.35621 | -2.27926 | 237 ft | 17 kts | 219° |
| 2026-04-30 18:47 | 53.35534 | -2.28077 | 237 ft | 18 kts | 221° |
| 2026-04-30 18:47 | 53.35409 | -2.28164 | 234 ft | 21 kts | 185° |
| 2026-04-30 18:47 | 53.35267 | -2.28245 | 231 ft | 24 kts | 217° |
| 2026-04-30 18:48 | 53.35153 | -2.28464 | 228 ft | 27 kts | 231° |
| 2026-04-30 18:48 | 53.35029 | -2.28716 | 225 ft | 29 kts | 227° |
| 2026-04-30 18:48 | 53.34882 | -2.28972 | 222 ft | 28 kts | 226° |
| 2026-04-30 18:48 | 53.34759 | -2.29211 | 219 ft | 27 kts | 230° |
| 2026-04-30 18:49 | 53.34675 | -2.29325 | 221 ft | 0 kts | 202° |
| 2026-04-30 18:51 | 53.34666 | -2.29330 | 218 ft | 5 kts | 199° |
| 2026-04-30 18:51 | 53.34613 | -2.29340 | 220 ft | 10 kts | 174° |
| 2026-04-30 18:51 | 53.34548 | -2.29273 | 215 ft | 12 kts | 113° |
| 2026-04-30 18:51 | 53.34574 | -2.29149 | 219 ft | 13 kts | 51° |
| 2026-04-30 18:52 | 53.34742 | -2.28800 | 221 ft | 80 kts | 52° |
| 2026-04-30 18:52 | 53.35262 | -2.27726 | 245 ft | 153 kts | 54° |
| 2026-04-30 18:52 | 53.36013 | -2.26186 | 686 ft | 179 kts | 55° |
| 2026-04-30 18:52 | 53.36777 | -2.24598 | 1903 ft | 172 kts | 58° |
| 2026-04-30 18:53 | 53.37540 | -2.23002 | 2842 ft | 185 kts | 59° |
| 2026-04-30 18:53 | 53.38402 | -2.21211 | 3472 ft | 214 kts | 52° |
| 2026-04-30 18:53 | 53.39791 | -2.19865 | 4064 ft | 252 kts | 16° |
| 2026-04-30 18:53 | 53.41633 | -2.19808 | 4728 ft | 284 kts | 347° |
| 2026-04-30 18:54 | 53.43559 | -2.21223 | 4964 ft | 321 kts | 322° |
| 2026-04-30 18:54 | 53.45051 | -2.23903 | 4992 ft | 306 kts | 296° |
| 2026-04-30 18:54 | 53.45689 | -2.27126 | 5000 ft | 280 kts | 269° |
| 2026-04-30 18:54 | 53.45577 | -2.30218 | 5005 ft | 267 kts | 258° |
| 2026-04-30 18:55 | 53.45476 | -2.33298 | 4996 ft | 274 kts | 269° |
| 2026-04-30 18:55 | 53.46528 | -2.39507 | 5000 ft | 279 kts | 284° |
| 2026-04-30 18:55 | 53.46900 | -2.42646 | 4997 ft | 272 kts | 268° |
| 2026-04-30 18:56 | 53.46397 | -2.48817 | 4997 ft | 268 kts | 255° |
| 2026-04-30 18:56 | 53.46061 | -2.51889 | 4993 ft | 267 kts | 255° |
| 2026-04-30 18:56 | 53.45729 | -2.54943 | 4991 ft | 266 kts | 255° |
| 2026-04-30 18:57 | 53.45060 | -2.61078 | 4973 ft | 267 kts | 255° |
| 2026-04-30 18:57 | 53.44724 | -2.64145 | 4976 ft | 267 kts | 255° |
| 2026-04-30 18:57 | 53.44387 | -2.67213 | 4968 ft | 269 kts | 255° |
| 2026-04-30 18:58 | 53.43699 | -2.73444 | 6116 ft | 275 kts | 255° |
| 2026-04-30 18:58 | 53.43347 | -2.76612 | 7139 ft | 278 kts | 255° |
| 2026-04-30 18:58 | 53.42992 | -2.79802 | 8155 ft | 280 kts | 255° |
| 2026-04-30 18:59 | 53.42264 | -2.86309 | 10134 ft | 287 kts | 255° |
| 2026-04-30 19:00 | 53.41180 | -2.95859 | 11378 ft | 341 kts | 255° |
| 2026-04-30 19:00 | 53.40735 | -2.99803 | 12157 ft | 346 kts | 255° |
| 2026-04-30 19:00 | 53.39837 | -3.07799 | 13811 ft | 357 kts | 255° |
| 2026-04-30 19:01 | 53.40417 | -3.16225 | 15284 ft | 385 kts | 292° |
| 2026-04-30 19:01 | 53.41853 | -3.20080 | 15997 ft | 394 kts | 302° |
| 2026-04-30 19:02 | 53.45148 | -3.27565 | 17446 ft | 404 kts | 303° |
| 2026-04-30 19:02 | 53.48497 | -3.35257 | 18776 ft | 413 kts | 302° |
| 2026-04-30 19:03 | 53.51869 | -3.43182 | 19992 ft | 421 kts | 302° |
| 2026-04-30 19:03 | 53.55291 | -3.51290 | 21227 ft | 429 kts | 301° |
| 2026-04-30 19:04 | 53.58765 | -3.59550 | 22455 ft | 436 kts | 301° |
| 2026-04-30 19:04 | 53.62023 | -3.68221 | 23643 ft | 438 kts | 290° |
| 2026-04-30 19:05 | 53.64338 | -3.77708 | 24114 ft | 438 kts | 287° |
| 2026-04-30 19:05 | 53.66616 | -3.87217 | 24134 ft | 438 kts | 287° |
| 2026-04-30 19:06 | 53.68887 | -3.96741 | 24134 ft | 437 kts | 287° |
| 2026-04-30 19:06 | 53.70018 | -4.01505 | 24132 ft | 437 kts | 287° |
| 2026-04-30 19:06 | 53.71694 | -4.11235 | 24135 ft | 428 kts | 273° |
| 2026-04-30 19:07 | 53.72143 | -4.21162 | 24127 ft | 423 kts | 268° |
| 2026-04-30 19:07 | 53.72330 | -4.26123 | 24125 ft | 423 kts | 268° |
| 2026-04-30 19:08 | 53.72701 | -4.36030 | 24122 ft | 423 kts | 268° |
| 2026-04-30 19:08 | 53.73060 | -4.45940 | 24120 ft | 423 kts | 268° |
| 2026-04-30 19:08 | 53.73236 | -4.50889 | 24120 ft | 422 kts | 268° |
| 2026-04-30 19:09 | 53.73583 | -4.60787 | 24118 ft | 422 kts | 268° |
| 2026-04-30 19:09 | 53.73753 | -4.65739 | 24119 ft | 423 kts | 268° |
| 2026-04-30 19:09 | 53.73922 | -4.70691 | 24114 ft | 422 kts | 268° |
| 2026-04-30 19:10 | 53.74249 | -4.80517 | 24111 ft | 422 kts | 268° |
| 2026-04-30 19:10 | 53.74571 | -4.90414 | 24109 ft | 421 kts | 268° |
| 2026-04-30 19:11 | 53.74729 | -4.95361 | 24109 ft | 421 kts | 268° |
| 2026-04-30 19:11 | 53.75039 | -5.05245 | 24114 ft | 422 kts | 268° |
| 2026-04-30 19:11 | 53.75127 | -5.10185 | 24110 ft | 418 kts | 263° |
| 2026-04-30 19:12 | 53.74841 | -5.15042 | 24111 ft | 413 kts | 255° |
| 2026-04-30 19:12 | 53.74164 | -5.19722 | 24108 ft | 408 kts | 246° |
| 2026-04-30 19:12 | 53.73239 | -5.24238 | 24111 ft | 408 kts | 245° |
| 2026-04-30 19:13 | 53.71399 | -5.33291 | 24113 ft | 408 kts | 246° |
| 2026-04-30 19:13 | 53.69559 | -5.42343 | 24114 ft | 408 kts | 246° |
| 2026-04-30 19:13 | 53.68701 | -5.46909 | 24112 ft | 411 kts | 251° |
| 2026-04-30 19:14 | 53.68209 | -5.51689 | 24108 ft | 417 kts | 259° |
| 2026-04-30 19:14 | 53.68146 | -5.56607 | 24112 ft | 422 kts | 268° |
| 2026-04-30 19:14 | 53.68225 | -5.61546 | 24108 ft | 418 kts | 261° |
| 2026-04-30 19:14 | 53.67691 | -5.66293 | 24113 ft | 409 kts | 246° |
| 2026-04-30 19:15 | 53.66459 | -5.70538 | 24116 ft | 399 kts | 230° |
| 2026-04-30 19:15 | 53.62585 | -5.76488 | 24114 ft | 384 kts | 202° |
| 2026-04-30 19:15 | 53.60462 | -5.77787 | 24112 ft | 379 kts | 189° |
| 2026-04-30 19:16 | 53.57888 | -5.78146 | 24112 ft | 376 kts | 175° |
| 2026-04-30 19:16 | 53.55308 | -5.77226 | 24113 ft | 376 kts | 159° |
| 2026-04-30 19:16 | 53.51166 | -5.71968 | 24086 ft | 381 kts | 129° |
| 2026-04-30 19:17 | 53.49922 | -5.68060 | 24031 ft | 380 kts | 113° |
| 2026-04-30 19:17 | 53.48866 | -5.59637 | 23816 ft | 355 kts | 114° |
| 2026-04-30 19:17 | 53.47746 | -5.56125 | 23693 ft | 332 kts | 133° |
| 2026-04-30 19:18 | 53.44712 | -5.52856 | 23494 ft | 301 kts | 168° |
| 2026-04-30 19:18 | 53.42020 | -5.52493 | 23229 ft | 289 kts | 178° |
| 2026-04-30 19:18 | 53.40004 | -5.52653 | 22647 ft | 293 kts | 184° |
| 2026-04-30 19:19 | 53.37972 | -5.53223 | 21703 ft | 301 kts | 190° |
| 2026-04-30 19:19 | 53.35893 | -5.54135 | 20469 ft | 316 kts | 191° |
| 2026-04-30 19:19 | 53.31388 | -5.56101 | 17533 ft | 353 kts | 197° |
| 2026-04-30 19:20 | 53.29094 | -5.57792 | 15987 ft | 367 kts | 205° |
| 2026-04-30 19:20 | 53.26907 | -5.60124 | 14524 ft | 378 kts | 213° |
| 2026-04-30 19:20 | 53.23663 | -5.67261 | 11503 ft | 402 kts | 245° |
| 2026-04-30 19:21 | 53.23065 | -5.71807 | 10620 ft | 400 kts | 263° |
| 2026-04-30 19:21 | 53.24358 | -5.80274 | 10054 ft | 367 kts | 301° |
| 2026-04-30 19:22 | 53.28046 | -5.85433 | 9600 ft | 332 kts | 329° |
| 2026-04-30 19:22 | 53.33782 | -5.90885 | 8621 ft | 311 kts | 329° |
| 2026-04-30 19:23 | 53.39395 | -5.96300 | 8247 ft | 310 kts | 329° |
| 2026-04-30 19:24 | 53.43105 | -5.99883 | 8109 ft | 306 kts | 329° |
| 2026-04-30 19:24 | 53.44955 | -6.01674 | 8108 ft | 308 kts | 329° |
| 2026-04-30 19:24 | 53.48661 | -6.05263 | 8107 ft | 308 kts | 328° |
| 2026-04-30 19:25 | 53.54220 | -6.10660 | 8109 ft | 307 kts | 328° |
| 2026-04-30 19:26 | 53.57841 | -6.14434 | 8111 ft | 304 kts | 313° |
| 2026-04-30 19:26 | 53.59379 | -6.20626 | 8110 ft | 286 kts | 261° |
| 2026-04-30 19:26 | 53.58927 | -6.23812 | 8110 ft | 278 kts | 244° |
| 2026-04-30 19:27 | 53.57543 | -6.29861 | 8111 ft | 278 kts | 246° |
| 2026-04-30 19:27 | 53.56932 | -6.36288 | 8107 ft | 291 kts | 277° |
| 2026-04-30 19:28 | 53.57768 | -6.39430 | 8106 ft | 301 kts | 304° |
| 2026-04-30 19:28 | 53.61305 | -6.43217 | 8108 ft | 308 kts | 339° |
| 2026-04-30 19:29 | 53.65063 | -6.46483 | 8109 ft | 304 kts | 311° |
| 2026-04-30 19:29 | 53.66287 | -6.49346 | 8100 ft | 301 kts | 298° |
| 2026-04-30 19:30 | 53.69397 | -6.58474 | 8115 ft | 296 kts | 286° |
| 2026-04-30 19:30 | 53.69798 | -6.65186 | 8115 ft | 287 kts | 263° |
| 2026-04-30 19:31 | 53.69725 | -6.71875 | 8116 ft | 287 kts | 263° |
| 2026-04-30 19:31 | 53.69543 | -6.75196 | 8115 ft | 281 kts | 251° |
| 2026-04-30 19:31 | 53.67855 | -6.80952 | 8113 ft | 272 kts | 232° |
| 2026-04-30 19:32 | 53.66845 | -6.83652 | 8109 ft | 272 kts | 232° |
| 2026-04-30 19:32 | 53.65840 | -6.86360 | 8108 ft | 273 kts | 232° |
| 2026-04-30 19:32 | 53.64744 | -6.88944 | 8112 ft | 269 kts | 222° |
| 2026-04-30 19:32 | 53.63329 | -6.90943 | 8107 ft | 264 kts | 208° |
| 2026-04-30 19:33 | 53.61711 | -6.92367 | 8102 ft | 262 kts | 202° |
| 2026-04-30 19:33 | 53.59994 | -6.93214 | 8101 ft | 256 kts | 182° |
| 2026-04-30 19:33 | 53.58240 | -6.92884 | 8096 ft | 254 kts | 161° |
| 2026-04-30 19:33 | 53.56722 | -6.91445 | 8031 ft | 249 kts | 141° |
| 2026-04-30 19:34 | 53.55656 | -6.89166 | 7701 ft | 252 kts | 120° |
| 2026-04-30 19:34 | 53.55177 | -6.86271 | 7073 ft | 268 kts | 100° |
| 2026-04-30 19:34 | 53.54867 | -6.79748 | 5580 ft | 290 kts | 99° |
| 2026-04-30 19:35 | 53.54702 | -6.76326 | 4875 ft | 297 kts | 99° |
| 2026-04-30 19:35 | 53.54448 | -6.72906 | 4361 ft | 290 kts | 110° |
| 2026-04-30 19:35 | 53.53526 | -6.70056 | 4148 ft | 269 kts | 134° |
| 2026-04-30 19:35 | 53.52121 | -6.68263 | 4101 ft | 242 kts | 155° |
| 2026-04-30 19:36 | 53.50589 | -6.67540 | 4101 ft | 219 kts | 173° |
| 2026-04-30 19:36 | 53.49129 | -6.67652 | 4111 ft | 208 kts | 182° |
| 2026-04-30 19:36 | 53.46390 | -6.68036 | 4098 ft | 179 kts | 173° |
| 2026-04-30 19:37 | 53.45265 | -6.67418 | 4112 ft | 173 kts | 144° |
| 2026-04-30 19:37 | 53.44516 | -6.65829 | 4083 ft | 177 kts | 118° |
| 2026-04-30 19:37 | 53.44185 | -6.63821 | 3922 ft | 181 kts | 105° |
| 2026-04-30 19:37 | 53.44046 | -6.61697 | 3842 ft | 185 kts | 101° |
| 2026-04-30 19:38 | 53.43938 | -6.59550 | 3747 ft | 184 kts | 102° |
| 2026-04-30 19:38 | 53.43822 | -6.57443 | 3595 ft | 176 kts | 102° |
| 2026-04-30 19:38 | 53.43712 | -6.55456 | 3375 ft | 167 kts | 103° |
| 2026-04-30 19:38 | 53.43607 | -6.53557 | 3158 ft | 160 kts | 103° |
| 2026-04-30 19:39 | 53.43503 | -6.51718 | 2951 ft | 160 kts | 103° |
| 2026-04-30 19:39 | 53.43399 | -6.49848 | 2740 ft | 163 kts | 103° |
| 2026-04-30 19:39 | 53.43296 | -6.47969 | 2524 ft | 160 kts | 103° |
| 2026-04-30 19:39 | 53.43199 | -6.46177 | 2310 ft | 148 kts | 104° |
| 2026-04-30 19:40 | 53.43098 | -6.44432 | 2115 ft | 151 kts | 103° |
| 2026-04-30 19:40 | 53.43006 | -6.42710 | 1914 ft | 148 kts | 103° |
| 2026-04-30 19:40 | 53.42909 | -6.40998 | 1715 ft | 148 kts | 103° |
| 2026-04-30 19:40 | 53.42813 | -6.39258 | 1500 ft | 151 kts | 101° |
| 2026-04-30 19:41 | 53.42715 | -6.37509 | 1305 ft | 154 kts | 101° |
| 2026-04-30 19:41 | 53.42616 | -6.35719 | 1091 ft | 155 kts | 99° |
| 2026-04-30 19:41 | 53.42505 | -6.33892 | 864 ft | 158 kts | 98° |
| 2026-04-30 19:41 | 53.42403 | -6.32072 | 672 ft | 156 kts | 95° |
| 2026-04-30 19:42 | 53.42303 | -6.30216 | 433 ft | 162 kts | 95° |
| 2026-04-30 19:42 | 53.42202 | -6.28369 | 244 ft | 152 kts | 94° |
| 2026-04-30 19:42 | 53.42130 | -6.26904 | 228 ft | 86 kts | 96° |
| 2026-04-30 19:42 | 53.42101 | -6.26419 | 225 ft | 22 kts | 93° |
| 2026-04-30 19:43 | 53.42150 | -6.26167 | 224 ft | 24 kts | 47° |
| 2026-04-30 19:43 | 53.42216 | -6.26044 | 224 ft | 12 kts | 47° |
| 2026-04-30 19:43 | 53.42245 | -6.25912 | 224 ft | 13 kts | 93° |
| 2026-04-30 19:44 | 53.42227 | -6.25560 | 224 ft | 17 kts | 95° |
| 2026-04-30 19:44 | 53.42226 | -6.25538 | 224 ft | 0 kts | 95° |
| 2026-04-30 19:44 | 53.42225 | -6.25530 | 224 ft | 2 kts | 95° |
| 2026-04-30 19:44 | 53.42222 | -6.25472 | 224 ft | 7 kts | 95° |
| 2026-04-30 19:45 | 53.42215 | -6.25367 | 224 ft | 11 kts | 96° |
| 2026-04-30 19:45 | 53.42206 | -6.25199 | 221 ft | 19 kts | 93° |
| 2026-04-30 19:45 | 53.42242 | -6.24982 | 223 ft | 18 kts | 53° |
| 2026-04-30 19:45 | 53.42327 | -6.24829 | 224 ft | 16 kts | 46° |
| 2026-04-30 19:46 | 53.42403 | -6.24687 | 225 ft | 17 kts | 55° |
| 2026-04-30 19:46 | 53.42465 | -6.24500 | 225 ft | 19 kts | 54° |
| 2026-04-30 19:46 | 53.42536 | -6.24386 | 225 ft | 0 kts | 74° |
| 2026-04-30 19:46 | 53.42537 | -6.24376 | 225 ft | 2 kts | 84° |
| 2026-04-30 19:47 | 53.42522 | -6.24305 | 226 ft | 9 kts | 131° |
| 2026-04-30 19:47 | 53.42491 | -6.24258 | 225 ft | 0 kts | 134° |